Mt Bomar Mars — 9HCM9 — position and weather

sailwx.info

Track history (hours):
 
Tides and Currents Weather Stations Pressure Air Temp Water Temp Dewpoint Dewpoint Depression Visibility Wind Speed Wind Dir Waves Ship Positions

Mt Bomar Mars

Last reported at 2015-May-20 02:12 UTC. Time now 2015-May-23 08:49 UTC.
Position N 39°27' W 009°44'.

Length 107 m; draft 5.3 m.

Type: Ship. MMSI: 256784000.

Date/timePositionNaut miles runAvg speedWind from/ knotsBaromVisibWave heightAir tempDewpointWater temp
2015-May-20 02:12N 39°27' W 009°44'2 3.7
2015-May-20 01:33N 39°24' W 009°45'3 3.2
2015-May-20 00:32N 39°21' W 009°46'3 3.2
2015-May-19 23:33N 39°18' W 009°44'5 4.7
2015-May-19 22:33N 39°14' W 009°42'5 5.1
2015-May-19 21:32N 39°09' W 009°46'5 4.6
2015-May-19 20:33N 39°06' W 009°50'4 3.5
2015-May-19 19:33N 39°03' W 009°52'3 3.0
2015-May-19 18:33N 39°00' W 009°51'3 3.4
2015-May-19 17:33N 38°57' W 009°49'3 3.2
2015-May-19 16:33N 38°54' W 009°51'3 3.4
2015-May-19 15:33N 38°51' W 009°52'3 3.5
2015-May-19 14:34N 38°48' W 009°51'3 3.5
2015-May-19 13:33N 38°44' W 009°51'3 3.2
2015-May-19 12:33N 38°41' W 009°50'3 3.5
2015-May-19 11:33N 38°38' W 009°48'6 6.2
2015-May-19 10:33N 38°36' W 009°41'9 9.1
2015-May-19 09:33N 38°39' W 009°29'5 3.8
2015-May-19 08:11N 38°40' W 009°23'0 0.0
2015-May-19 07:05N 38°40' W 009°23'0 0.0
2015-May-19 06:29N 38°40' W 009°23'0 0.0
2015-May-19 05:26N 38°40' W 009°23'0 0.0
2015-May-19 04:32N 38°40' W 009°23'0 0.0
2015-May-19 02:26N 38°40' W 009°23'0 0.0
2015-May-18 23:23N 38°40' W 009°23'0 0.1
2015-May-18 22:29N 38°40' W 009°23'0 0.1
2015-May-18 21:29N 38°40' W 009°23'0 0.0
2015-May-18 20:29N 38°40' W 009°23'0 0.0
2015-May-18 19:08N 38°40' W 009°23'0 0.3
2015-May-18 18:32N 38°40' W 009°23'0 0.1
2015-May-18 17:16N 38°40' W 009°23'0 0.0
2015-May-18 16:16N 38°40' W 009°23'0 0.0
2015-May-18 15:13N 38°40' W 009°23'0 0.0
2015-May-18 14:28N 38°40' W 009°23'0 0.0
2015-May-18 13:16N 38°40' W 009°23'0 0.0
2015-May-18 12:28N 38°40' W 009°23'0 0.0
2015-May-18 11:31N 38°40' W 009°23'0 0.0
2015-May-18 10:28N 38°40' W 009°23'0 0.0
2015-May-18 09:25N 38°40' W 009°23'0 0.0
2015-May-18 08:28N 38°40' W 009°23'0 0.1
2015-May-18 07:28N 38°40' W 009°23'0 0.0
2015-May-18 06:25N 38°40' W 009°23'0 0.0
2015-May-18 05:19N 38°40' W 009°23'0 0.1
2015-May-18 04:28N 38°40' W 009°23'0 0.0
2015-May-18 02:28N 38°40' W 009°23'0 0.0
2015-May-18 00:10N 38°40' W 009°23'0 0.0
2015-May-17 23:10N 38°40' W 009°23'1 2.1
2015-May-17 22:33N 38°40' W 009°25'1211.7
2015-May-17 21:33N 38°39' W 009°40'1111.2
2015-May-17 20:33N 38°50' W 009°43'1312.8
2015-May-17 19:33N 39°03' W 009°44'  
2015-May-13 11:28N 49°32' W 004°07'7612.3
2015-May-13 05:16N 50°05' W 002°21'810.7
2015-May-13 04:30N 50°07' W 002°09'10111.3
2015-May-12 19:33N 50°34' E 000°25'1111.4
2015-May-12 18:33N 50°39' E 000°41'1111.0
2015-May-12 17:33N 50°46' E 000°54'1110.8
2015-May-12 16:31N 50°53' E 001°08'1111.1
2015-May-12 15:32N 51°01' E 001°21'1313.2
2015-May-12 14:34N 51°09' E 001°37'1413.6
2015-May-12 13:34N 51°19' E 001°51'1010.2
2015-May-12 12:33N 51°24' E 002°05'1313.1
2015-May-12 11:33N 51°22' E 002°26'10 9.9
2015-May-12 10:34N 51°22' E 002°42'1110.5
2015-May-12 09:33N 51°23' E 002°58'1110.5
2015-May-12 08:33N 51°25' E 003°15'1110.7
2015-May-12 07:33N 51°25' E 003°32'9 9.4
2015-May-12 06:34N 51°21' E 003°46'1 0.5
2015-May-12 05:25N 51°21' E 003°46'0 0.0
2015-May-12 04:19N 51°21' E 003°46'0 0.0
2015-May-12 03:31N 51°21' E 003°46'0 0.0
2015-May-12 02:19N 51°21' E 003°46'0 0.0
2015-May-12 00:25N 51°21' E 003°46'0 0.0
2015-May-11 23:28N 51°21' E 003°46'0 0.0
2015-May-11 22:31N 51°21' E 003°46'0 0.0
2015-May-11 21:28N 51°21' E 003°46'0 0.0
2015-May-11 20:31N 51°21' E 003°46'0 0.0
2015-May-11 19:28N 51°21' E 003°46'0 0.0
2015-May-11 18:19N 51°21' E 003°46'0 0.0
2015-May-11 17:22N 51°21' E 003°46'0 0.0
2015-May-11 16:31N 51°21' E 003°46'0 0.0
2015-May-11 15:22N 51°21' E 003°46'0 0.0
2015-May-11 14:28N 51°21' E 003°46'0 0.0
2015-May-11 13:31N 51°21' E 003°46'0 0.0
2015-May-11 12:25N 51°21' E 003°46'0 0.0
2015-May-11 11:31N 51°21' E 003°46'0 0.0
2015-May-11 10:31N 51°21' E 003°46'0 0.0
2015-May-11 09:28N 51°21' E 003°46'0 0.0
2015-May-11 08:31N 51°21' E 003°46'0 0.0
2015-May-11 07:25N 51°21' E 003°46'0 0.0
2015-May-11 06:28N 51°21' E 003°46'0 0.0
2015-May-11 05:31N 51°21' E 003°46'0 0.0
2015-May-11 04:31N 51°21' E 003°46'0 0.0
2015-May-11 03:25N 51°21' E 003°46'0 0.0
2015-May-11 02:31N 51°21' E 003°46'0 0.0
2015-May-11 01:22N 51°21' E 003°46'0 0.0
2015-May-11 00:31N 51°21' E 003°46'0 0.0
2015-May-10 23:28N 51°21' E 003°46'0 0.0
2015-May-10 22:31N 51°21' E 003°46'0 0.0
2015-May-10 21:31N 51°21' E 003°46'0 0.0
2015-May-10 20:31N 51°21' E 003°46'0 0.0
2015-May-10 19:31N 51°21' E 003°46'0 0.0
2015-May-10 18:28N 51°21' E 003°46'0 0.0
2015-May-10 17:31N 51°21' E 003°46'0 0.0
2015-May-10 16:31N 51°21' E 003°46'0 0.0
2015-May-10 15:31N 51°21' E 003°46'0 0.0
2015-May-10 14:28N 51°21' E 003°46'6 6.1
2015-May-10 13:34N 51°25' E 003°40'1313.0
2015-May-10 12:33N 51°34' E 003°24'1212.0
2015-May-10 11:33N 51°44' E 003°14'47 9.3
2015-May-10 06:32N 52°25' E 002°37'3310.9
2015-May-10 03:29N 52°58' E 002°29'1312.1
2015-May-10 02:26N 53°09' E 002°19'  
Track history (hours):
 
Tides and Currents Weather Stations Pressure Air Temp Water Temp Dewpoint Dewpoint Depression Visibility Wind Speed Wind Dir Waves Ship Positions

Mt Bomar Mars

Last reported at 2015-May-20 02:12 UTC. Time now 2015-May-23 08:49 UTC.
Position N 39°27' W 009°44'.

Length 107 m; draft 5.3 m.

Type: Ship. MMSI: 256784000.

Date/timePositionNaut miles runAvg speedWind from/ knotsBaromVisibWave heightAir tempDewpointWater temp
2015-May-20 02:12N 39°27' W 009°44'2 3.7
2015-May-20 01:33N 39°24' W 009°45'3 3.2
2015-May-20 00:32N 39°21' W 009°46'3 3.2
2015-May-19 23:33N 39°18' W 009°44'5 4.7
2015-May-19 22:33N 39°14' W 009°42'5 5.1
2015-May-19 21:32N 39°09' W 009°46'5 4.6
2015-May-19 20:33N 39°06' W 009°50'4 3.5
2015-May-19 19:33N 39°03' W 009°52'3 3.0
2015-May-19 18:33N 39°00' W 009°51'3 3.4
2015-May-19 17:33N 38°57' W 009°49'3 3.2
2015-May-19 16:33N 38°54' W 009°51'3 3.4
2015-May-19 15:33N 38°51' W 009°52'3 3.5
2015-May-19 14:34N 38°48' W 009°51'3 3.5
2015-May-19 13:33N 38°44' W 009°51'3 3.2
2015-May-19 12:33N 38°41' W 009°50'3 3.5
2015-May-19 11:33N 38°38' W 009°48'6 6.2
2015-May-19 10:33N 38°36' W 009°41'9 9.1
2015-May-19 09:33N 38°39' W 009°29'5 3.8
2015-May-19 08:11N 38°40' W 009°23'0 0.0
2015-May-19 07:05N 38°40' W 009°23'0 0.0
2015-May-19 06:29N 38°40' W 009°23'0 0.0
2015-May-19 05:26N 38°40' W 009°23'0 0.0
2015-May-19 04:32N 38°40' W 009°23'0 0.0
2015-May-19 02:26N 38°40' W 009°23'0 0.0
2015-May-18 23:23N 38°40' W 009°23'0 0.1
2015-May-18 22:29N 38°40' W 009°23'0 0.1
2015-May-18 21:29N 38°40' W 009°23'0 0.0
2015-May-18 20:29N 38°40' W 009°23'0 0.0
2015-May-18 19:08N 38°40' W 009°23'0 0.3
2015-May-18 18:32N 38°40' W 009°23'0 0.1
2015-May-18 17:16N 38°40' W 009°23'0 0.0
2015-May-18 16:16N 38°40' W 009°23'0 0.0
2015-May-18 15:13N 38°40' W 009°23'0 0.0
2015-May-18 14:28N 38°40' W 009°23'0 0.0
2015-May-18 13:16N 38°40' W 009°23'0 0.0
2015-May-18 12:28N 38°40' W 009°23'0 0.0
2015-May-18 11:31N 38°40' W 009°23'0 0.0
2015-May-18 10:28N 38°40' W 009°23'0 0.0
2015-May-18 09:25N 38°40' W 009°23'0 0.0
2015-May-18 08:28N 38°40' W 009°23'0 0.1
2015-May-18 07:28N 38°40' W 009°23'0 0.0
2015-May-18 06:25N 38°40' W 009°23'0 0.0
2015-May-18 05:19N 38°40' W 009°23'0 0.1
2015-May-18 04:28N 38°40' W 009°23'0 0.0
2015-May-18 02:28N 38°40' W 009°23'0 0.0
2015-May-18 00:10N 38°40' W 009°23'0 0.0
2015-May-17 23:10N 38°40' W 009°23'1 2.1
2015-May-17 22:33N 38°40' W 009°25'1211.7
2015-May-17 21:33N 38°39' W 009°40'1111.2
2015-May-17 20:33N 38°50' W 009°43'1312.8
2015-May-17 19:33N 39°03' W 009°44'  
2015-May-13 11:28N 49°32' W 004°07'7612.3
2015-May-13 05:16N 50°05' W 002°21'810.7
2015-May-13 04:30N 50°07' W 002°09'10111.3
2015-May-12 19:33N 50°34' E 000°25'1111.4
2015-May-12 18:33N 50°39' E 000°41'1111.0
2015-May-12 17:33N 50°46' E 000°54'1110.8
2015-May-12 16:31N 50°53' E 001°08'1111.1
2015-May-12 15:32N 51°01' E 001°21'1313.2
2015-May-12 14:34N 51°09' E 001°37'1413.6
2015-May-12 13:34N 51°19' E 001°51'1010.2
2015-May-12 12:33N 51°24' E 002°05'1313.1
2015-May-12 11:33N 51°22' E 002°26'10 9.9
2015-May-12 10:34N 51°22' E 002°42'1110.5
2015-May-12 09:33N 51°23' E 002°58'1110.5
2015-May-12 08:33N 51°25' E 003°15'1110.7
2015-May-12 07:33N 51°25' E 003°32'9 9.4
2015-May-12 06:34N 51°21' E 003°46'1 0.5
2015-May-12 05:25N 51°21' E 003°46'0 0.0
2015-May-12 04:19N 51°21' E 003°46'0 0.0
2015-May-12 03:31N 51°21' E 003°46'0 0.0
2015-May-12 02:19N 51°21' E 003°46'0 0.0
2015-May-12 00:25N 51°21' E 003°46'0 0.0
2015-May-11 23:28N 51°21' E 003°46'0 0.0
2015-May-11 22:31N 51°21' E 003°46'0 0.0
2015-May-11 21:28N 51°21' E 003°46'0 0.0
2015-May-11 20:31N 51°21' E 003°46'0 0.0
2015-May-11 19:28N 51°21' E 003°46'0 0.0
2015-May-11 18:19N 51°21' E 003°46'0 0.0
2015-May-11 17:22N 51°21' E 003°46'0 0.0
2015-May-11 16:31N 51°21' E 003°46'0 0.0
2015-May-11 15:22N 51°21' E 003°46'0 0.0
2015-May-11 14:28N 51°21' E 003°46'0 0.0
2015-May-11 13:31N 51°21' E 003°46'0 0.0
2015-May-11 12:25N 51°21' E 003°46'0 0.0
2015-May-11 11:31N 51°21' E 003°46'0 0.0
2015-May-11 10:31N 51°21' E 003°46'0 0.0
2015-May-11 09:28N 51°21' E 003°46'0 0.0
2015-May-11 08:31N 51°21' E 003°46'0 0.0
2015-May-11 07:25N 51°21' E 003°46'0 0.0
2015-May-11 06:28N 51°21' E 003°46'0 0.0
2015-May-11 05:31N 51°21' E 003°46'0 0.0
2015-May-11 04:31N 51°21' E 003°46'0 0.0
2015-May-11 03:25N 51°21' E 003°46'0 0.0
2015-May-11 02:31N 51°21' E 003°46'0 0.0
2015-May-11 01:22N 51°21' E 003°46'0 0.0
2015-May-11 00:31N 51°21' E 003°46'0 0.0
2015-May-10 23:28N 51°21' E 003°46'0 0.0
2015-May-10 22:31N 51°21' E 003°46'0 0.0
2015-May-10 21:31N 51°21' E 003°46'0 0.0
2015-May-10 20:31N 51°21' E 003°46'0 0.0
2015-May-10 19:31N 51°21' E 003°46'0 0.0
2015-May-10 18:28N 51°21' E 003°46'0 0.0
2015-May-10 17:31N 51°21' E 003°46'0 0.0
2015-May-10 16:31N 51°21' E 003°46'0 0.0
2015-May-10 15:31N 51°21' E 003°46'0 0.0
2015-May-10 14:28N 51°21' E 003°46'6 6.1
2015-May-10 13:34N 51°25' E 003°40'1313.0
2015-May-10 12:33N 51°34' E 003°24'1212.0
2015-May-10 11:33N 51°44' E 003°14'47 9.3
2015-May-10 06:32N 52°25' E 002°37'3310.9
2015-May-10 03:29N 52°58' E 002°29'1312.1
2015-May-10 02:26N 53°09' E 002°19'  

Dump ship's entire track history